sensor_id;sensor_type;location;lat;lon;timestamp;temperature;humidity
19214;DHT22;9741;51.020;5.304;2022-08-01T00:01:50;22.80;58.20
19214;DHT22;9741;51.020;5.304;2022-08-01T00:04:17;22.80;58.20
19214;DHT22;9741;51.020;5.304;2022-08-01T00:06:46;22.80;58.20
19214;DHT22;9741;51.020;5.304;2022-08-01T00:09:13;22.80;58.30
19214;DHT22;9741;51.020;5.304;2022-08-01T00:11:40;22.80;58.30
19214;DHT22;9741;51.020;5.304;2022-08-01T00:14:08;22.80;58.40
19214;DHT22;9741;51.020;5.304;2022-08-01T00:16:36;22.80;58.40
19214;DHT22;9741;51.020;5.304;2022-08-01T00:19:03;22.70;58.30
19214;DHT22;9741;51.020;5.304;2022-08-01T00:21:30;22.70;58.40
19214;DHT22;9741;51.020;5.304;2022-08-01T00:23:59;22.70;58.40
19214;DHT22;9741;51.020;5.304;2022-08-01T00:26:26;22.70;58.40
19214;DHT22;9741;51.020;5.304;2022-08-01T00:28:53;22.70;58.50
19214;DHT22;9741;51.020;5.304;2022-08-01T00:31:20;22.70;58.50
19214;DHT22;9741;51.020;5.304;2022-08-01T00:33:47;22.70;58.40
19214;DHT22;9741;51.020;5.304;2022-08-01T00:36:14;22.70;58.40
19214;DHT22;9741;51.020;5.304;2022-08-01T00:38:41;22.70;58.50
19214;DHT22;9741;51.020;5.304;2022-08-01T00:41:09;22.70;58.50
19214;DHT22;9741;51.020;5.304;2022-08-01T00:43:37;22.70;58.50
19214;DHT22;9741;51.020;5.304;2022-08-01T00:46:04;22.70;58.50
19214;DHT22;9741;51.020;5.304;2022-08-01T00:48:31;22.70;58.50
19214;DHT22;9741;51.020;5.304;2022-08-01T00:50:58;22.70;58.50
19214;DHT22;9741;51.020;5.304;2022-08-01T00:53:25;22.70;58.50
19214;DHT22;9741;51.020;5.304;2022-08-01T00:55:52;22.70;58.50
19214;DHT22;9741;51.020;5.304;2022-08-01T00:58:21;22.60;58.40
19214;DHT22;9741;51.020;5.304;2022-08-01T01:00:49;22.60;58.40
19214;DHT22;9741;51.020;5.304;2022-08-01T01:03:16;22.60;58.40
19214;DHT22;9741;51.020;5.304;2022-08-01T01:05:50;22.60;58.40
19214;DHT22;9741;51.020;5.304;2022-08-01T01:08:27;22.70;58.60
19214;DHT22;9741;51.020;5.304;2022-08-01T01:11:03;22.60;58.40
19214;DHT22;9741;51.020;5.304;2022-08-01T01:13:37;22.60;58.40
19214;DHT22;9741;51.020;5.304;2022-08-01T01:16:08;22.60;59.00
19214;DHT22;9741;51.020;5.304;2022-08-01T01:18:39;22.60;58.40
19214;DHT22;9741;51.020;5.304;2022-08-01T01:24:16;22.60;58.40
19214;DHT22;9741;51.020;5.304;2022-08-01T01:26:51;22.60;58.40
19214;DHT22;9741;51.020;5.304;2022-08-01T01:29:23;22.60;58.40
19214;DHT22;9741;51.020;5.304;2022-08-01T01:32:04;22.60;58.40
19214;DHT22;9741;51.020;5.304;2022-08-01T01:34:35;22.60;58.40
19214;DHT22;9741;51.020;5.304;2022-08-01T01:37:06;22.60;59.00
19214;DHT22;9741;51.020;5.304;2022-08-01T01:39:35;22.60;58.40
19214;DHT22;9741;51.020;5.304;2022-08-01T01:42:05;22.60;58.40
19214;DHT22;9741;51.020;5.304;2022-08-01T01:44:35;22.50;58.40
19214;DHT22;9741;51.020;5.304;2022-08-01T01:47:03;22.50;58.40
19214;DHT22;9741;51.020;5.304;2022-08-01T01:49:32;22.50;58.40
19214;DHT22;9741;51.020;5.304;2022-08-01T01:52:00;22.50;58.40
19214;DHT22;9741;51.020;5.304;2022-08-01T01:54:37;22.50;58.40
19214;DHT22;9741;51.020;5.304;2022-08-01T01:57:05;22.50;58.40
19214;DHT22;9741;51.020;5.304;2022-08-01T01:59:36;22.50;58.40
19214;DHT22;9741;51.020;5.304;2022-08-01T02:02:06;22.50;58.50
19214;DHT22;9741;51.020;5.304;2022-08-01T02:04:36;22.50;58.50
19214;DHT22;9741;51.020;5.304;2022-08-01T02:07:05;22.50;58.50
19214;DHT22;9741;51.020;5.304;2022-08-01T02:09:35;22.50;58.50
19214;DHT22;9741;51.020;5.304;2022-08-01T02:12:05;22.50;58.40
19214;DHT22;9741;51.020;5.304;2022-08-01T02:14:34;22.50;58.40
19214;DHT22;9741;51.020;5.304;2022-08-01T02:17:02;22.50;58.50
19214;DHT22;9741;51.020;5.304;2022-08-01T02:19:30;22.50;58.50
19214;DHT22;9741;51.020;5.304;2022-08-01T02:22:00;22.50;58.50
19214;DHT22;9741;51.020;5.304;2022-08-01T02:24:34;22.50;58.50
19214;DHT22;9741;51.020;5.304;2022-08-01T02:27:07;22.40;58.40
19214;DHT22;9741;51.020;5.304;2022-08-01T02:29:41;22.50;58.50
19214;DHT22;9741;51.020;5.304;2022-08-01T02:32:13;22.50;58.50
19214;DHT22;9741;51.020;5.304;2022-08-01T02:34:42;22.50;58.50
19214;DHT22;9741;51.020;5.304;2022-08-01T02:37:11;22.50;58.50
19214;DHT22;9741;51.020;5.304;2022-08-01T02:39:38;22.50;58.60
19214;DHT22;9741;51.020;5.304;2022-08-01T02:42:08;22.50;58.60
19214;DHT22;9741;51.020;5.304;2022-08-01T02:44:39;22.40;58.50
19214;DHT22;9741;51.020;5.304;2022-08-01T02:47:09;22.50;58.60
19214;DHT22;9741;51.020;5.304;2022-08-01T02:49:41;22.50;58.60
19214;DHT22;9741;51.020;5.304;2022-08-01T02:52:13;22.50;58.60
19214;DHT22;9741;51.020;5.304;2022-08-01T02:54:42;22.50;58.60
19214;DHT22;9741;51.020;5.304;2022-08-01T02:57:10;22.40;58.50
19214;DHT22;9741;51.020;5.304;2022-08-01T02:59:40;22.50;58.70
19214;DHT22;9741;51.020;5.304;2022-08-01T03:02:09;22.50;58.70
19214;DHT22;9741;51.020;5.304;2022-08-01T03:04:39;22.40;58.60
19214;DHT22;9741;51.020;5.304;2022-08-01T03:07:09;22.40;58.60
19214;DHT22;9741;51.020;5.304;2022-08-01T03:09:39;22.40;58.70
19214;DHT22;9741;51.020;5.304;2022-08-01T03:12:11;22.40;58.70
19214;DHT22;9741;51.020;5.304;2022-08-01T03:14:42;22.40;58.70
19214;DHT22;9741;51.020;5.304;2022-08-01T03:17:10;22.40;58.70
19214;DHT22;9741;51.020;5.304;2022-08-01T03:19:39;22.40;58.80
19214;DHT22;9741;51.020;5.304;2022-08-01T03:22:07;22.40;58.80
19214;DHT22;9741;51.020;5.304;2022-08-01T03:24:35;22.40;58.80
19214;DHT22;9741;51.020;5.304;2022-08-01T03:27:04;22.40;58.80
19214;DHT22;9741;51.020;5.304;2022-08-01T03:29:33;22.40;58.80
19214;DHT22;9741;51.020;5.304;2022-08-01T03:32:03;22.40;58.90
19214;DHT22;9741;51.020;5.304;2022-08-01T03:34:31;22.30;58.80
19214;DHT22;9741;51.020;5.304;2022-08-01T03:37:03;22.30;58.80
19214;DHT22;9741;51.020;5.304;2022-08-01T03:39:37;22.30;58.80
19214;DHT22;9741;51.020;5.304;2022-08-01T03:42:11;22.30;58.90
19214;DHT22;9741;51.020;5.304;2022-08-01T03:44:40;22.30;58.90
19214;DHT22;9741;51.020;5.304;2022-08-01T03:47:09;22.30;58.90
19214;DHT22;9741;51.020;5.304;2022-08-01T03:49:41;22.30;58.90
19214;DHT22;9741;51.020;5.304;2022-08-01T03:52:09;22.30;59.00
19214;DHT22;9741;51.020;5.304;2022-08-01T03:54:41;22.30;59.00
19214;DHT22;9741;51.020;5.304;2022-08-01T03:57:10;22.30;59.00
19214;DHT22;9741;51.020;5.304;2022-08-01T03:59:37;22.30;59.00
19214;DHT22;9741;51.020;5.304;2022-08-01T04:02:05;22.30;59.00
19214;DHT22;9741;51.020;5.304;2022-08-01T04:04:34;22.30;59.10
19214;DHT22;9741;51.020;5.304;2022-08-01T04:07:01;22.30;59.10
19214;DHT22;9741;51.020;5.304;2022-08-01T04:09:32;22.30;59.10
19214;DHT22;9741;51.020;5.304;2022-08-01T04:12:00;22.30;59.20
19214;DHT22;9741;51.020;5.304;2022-08-01T04:14:28;22.30;59.20
19214;DHT22;9741;51.020;5.304;2022-08-01T04:16:56;22.30;59.30
19214;DHT22;9741;51.020;5.304;2022-08-01T04:19:23;22.30;59.30
19214;DHT22;9741;51.020;5.304;2022-08-01T04:21:52;22.20;59.30
19214;DHT22;9741;51.020;5.304;2022-08-01T04:24:20;22.30;59.40
19214;DHT22;9741;51.020;5.304;2022-08-01T04:26:50;22.30;59.50
19214;DHT22;9741;51.020;5.304;2022-08-01T04:29:19;22.20;59.40
19214;DHT22;9741;51.020;5.304;2022-08-01T04:31:49;22.20;59.50
19214;DHT22;9741;51.020;5.304;2022-08-01T04:34:20;22.20;59.60
19214;DHT22;9741;51.020;5.304;2022-08-01T04:36:48;22.20;59.70
19214;DHT22;9741;51.020;5.304;2022-08-01T04:39:19;22.20;59.80
19214;DHT22;9741;51.020;5.304;2022-08-01T04:41:47;22.20;59.80
19214;DHT22;9741;51.020;5.304;2022-08-01T04:44:16;22.20;59.90
19214;DHT22;9741;51.020;5.304;2022-08-01T04:46:43;22.20;60.00
19214;DHT22;9741;51.020;5.304;2022-08-01T04:49:11;22.20;60.00
19214;DHT22;9741;51.020;5.304;2022-08-01T04:51:50;22.20;60.00
19214;DHT22;9741;51.020;5.304;2022-08-01T04:54:19;22.20;60.10
19214;DHT22;9741;51.020;5.304;2022-08-01T04:56:47;22.20;60.10
19214;DHT22;9741;51.020;5.304;2022-08-01T04:59:14;22.20;60.10
19214;DHT22;9741;51.020;5.304;2022-08-01T05:01:58;22.20;60.10
19214;DHT22;9741;51.020;5.304;2022-08-01T05:04:25;22.20;60.20
19214;DHT22;9741;51.020;5.304;2022-08-01T05:06:52;22.20;60.30
19214;DHT22;9741;51.020;5.304;2022-08-01T05:09:20;22.10;60.30
19214;DHT22;9741;51.020;5.304;2022-08-01T05:11:47;22.10;60.40
19214;DHT22;9741;51.020;5.304;2022-08-01T05:14:14;22.10;60.50
19214;DHT22;9741;51.020;5.304;2022-08-01T05:16:42;22.10;60.50
19214;DHT22;9741;51.020;5.304;2022-08-01T05:19:09;22.20;60.70
19214;DHT22;9741;51.020;5.304;2022-08-01T05:21:36;22.10;60.70
19214;DHT22;9741;51.020;5.304;2022-08-01T05:24:04;22.10;60.90
19214;DHT22;9741;51.020;5.304;2022-08-01T05:26:32;22.10;60.90
19214;DHT22;9741;51.020;5.304;2022-08-01T05:28:59;22.10;61.00
19214;DHT22;9741;51.020;5.304;2022-08-01T05:31:26;22.10;61.10
19214;DHT22;9741;51.020;5.304;2022-08-01T05:33:54;22.10;61.20
19214;DHT22;9741;51.020;5.304;2022-08-01T05:36:21;22.10;61.30
19214;DHT22;9741;51.020;5.304;2022-08-01T05:38:48;22.10;61.30
19214;DHT22;9741;51.020;5.304;2022-08-01T05:41:15;22.10;61.40
19214;DHT22;9741;51.020;5.304;2022-08-01T05:43:44;22.10;61.50
19214;DHT22;9741;51.020;5.304;2022-08-01T05:46:11;22.20;61.70
19214;DHT22;9741;51.020;5.304;2022-08-01T05:48:38;22.20;61.70
19214;DHT22;9741;51.020;5.304;2022-08-01T05:51:05;22.30;61.70
19214;DHT22;9741;51.020;5.304;2022-08-01T05:53:32;22.30;61.70
19214;DHT22;9741;51.020;5.304;2022-08-01T05:56:00;22.40;61.70
19214;DHT22;9741;51.020;5.304;2022-08-01T05:58:27;22.50;61.60
19214;DHT22;9741;51.020;5.304;2022-08-01T06:00:56;22.60;61.60
19214;DHT22;9741;51.020;5.304;2022-08-01T06:03:23;22.70;61.60
19214;DHT22;9741;51.020;5.304;2022-08-01T06:05:51;22.70;61.60
19214;DHT22;9741;51.020;5.304;2022-08-01T06:08:19;22.80;61.50
19214;DHT22;9741;51.020;5.304;2022-08-01T06:10:46;22.90;61.50
19214;DHT22;9741;51.020;5.304;2022-08-01T06:13:13;23.00;61.40
19214;DHT22;9741;51.020;5.304;2022-08-01T06:15:40;23.10;61.30
19214;DHT22;9741;51.020;5.304;2022-08-01T06:18:08;23.20;61.20
19214;DHT22;9741;51.020;5.304;2022-08-01T06:20:36;23.30;61.10
19214;DHT22;9741;51.020;5.304;2022-08-01T06:23:03;23.40;61.10
19214;DHT22;9741;51.020;5.304;2022-08-01T06:25:30;23.40;60.90
19214;DHT22;9741;51.020;5.304;2022-08-01T06:27:59;23.50;60.80
19214;DHT22;9741;51.020;5.304;2022-08-01T06:30:26;23.60;60.70
19214;DHT22;9741;51.020;5.304;2022-08-01T06:32:54;23.60;60.40
19214;DHT22;9741;51.020;5.304;2022-08-01T06:35:22;23.70;60.30
19214;DHT22;9741;51.020;5.304;2022-08-01T06:37:50;23.80;60.20
19214;DHT22;9741;51.020;5.304;2022-08-01T06:40:17;23.90;60.20
19214;DHT22;9741;51.020;5.304;2022-08-01T06:42:44;24.00;59.90
19214;DHT22;9741;51.020;5.304;2022-08-01T06:45:13;24.10;59.70
19214;DHT22;9741;51.020;5.304;2022-08-01T06:47:42;24.30;59.50
19214;DHT22;9741;51.020;5.304;2022-08-01T06:50:10;24.60;59.30
19214;DHT22;9741;51.020;5.304;2022-08-01T06:52:41;24.80;58.90
19214;DHT22;9741;51.020;5.304;2022-08-01T06:55:09;24.90;58.30
19214;DHT22;9741;51.020;5.304;2022-08-01T06:57:44;25.10;57.90
19214;DHT22;9741;51.020;5.304;2022-08-01T07:00:12;25.20;57.60
19214;DHT22;9741;51.020;5.304;2022-08-01T07:02:42;25.30;57.30
19214;DHT22;9741;51.020;5.304;2022-08-01T07:05:10;25.30;57.10
19214;DHT22;9741;51.020;5.304;2022-08-01T07:07:37;25.30;56.90
19214;DHT22;9741;51.020;5.304;2022-08-01T07:10:06;25.40;56.80
19214;DHT22;9741;51.020;5.304;2022-08-01T07:12:35;25.40;56.50
19214;DHT22;9741;51.020;5.304;2022-08-01T07:15:04;25.50;56.50
19214;DHT22;9741;51.020;5.304;2022-08-01T07:17:32;25.60;56.30
19214;DHT22;9741;51.020;5.304;2022-08-01T07:20:00;25.70;56.10
19214;DHT22;9741;51.020;5.304;2022-08-01T07:22:28;25.80;56.10
19214;DHT22;9741;51.020;5.304;2022-08-01T07:24:55;26.00;55.80
19214;DHT22;9741;51.020;5.304;2022-08-01T07:27:24;26.20;55.60
19214;DHT22;9741;51.020;5.304;2022-08-01T07:29:51;26.50;55.30
19214;DHT22;9741;51.020;5.304;2022-08-01T07:32:19;26.80;55.00
19214;DHT22;9741;51.020;5.304;2022-08-01T07:34:47;27.30;54.80
19214;DHT22;9741;51.020;5.304;2022-08-01T07:37:14;27.70;54.00
19214;DHT22;9741;51.020;5.304;2022-08-01T07:39:42;28.10;53.20
19214;DHT22;9741;51.020;5.304;2022-08-01T07:42:10;28.50;52.70
19214;DHT22;9741;51.020;5.304;2022-08-01T07:44:39;28.90;52.10
19214;DHT22;9741;51.020;5.304;2022-08-01T07:47:07;29.20;51.40
19214;DHT22;9741;51.020;5.304;2022-08-01T07:49:36;29.20;50.60
19214;DHT22;9741;51.020;5.304;2022-08-01T07:52:06;29.20;50.00
19214;DHT22;9741;51.020;5.304;2022-08-01T07:54:33;29.10;49.60
19214;DHT22;9741;51.020;5.304;2022-08-01T07:57:01;28.90;49.40
19214;DHT22;9741;51.020;5.304;2022-08-01T07:59:28;28.80;49.50
19214;DHT22;9741;51.020;5.304;2022-08-01T08:01:57;28.80;49.50
19214;DHT22;9741;51.020;5.304;2022-08-01T08:04:25;28.80;49.30
19214;DHT22;9741;51.020;5.304;2022-08-01T08:06:53;28.80;49.20
19214;DHT22;9741;51.020;5.304;2022-08-01T08:09:21;28.80;49.20
19214;DHT22;9741;51.020;5.304;2022-08-01T08:11:48;28.90;49.00
19214;DHT22;9741;51.020;5.304;2022-08-01T08:14:16;29.20;49.30
19214;DHT22;9741;51.020;5.304;2022-08-01T08:16:44;29.50;48.90
19214;DHT22;9741;51.020;5.304;2022-08-01T08:19:12;29.80;48.40
19214;DHT22;9741;51.020;5.304;2022-08-01T08:21:40;29.90;47.90
19214;DHT22;9741;51.020;5.304;2022-08-01T08:24:08;29.90;47.60
19214;DHT22;9741;51.020;5.304;2022-08-01T08:26:51;29.90;47.30
19214;DHT22;9741;51.020;5.304;2022-08-01T08:29:18;29.90;47.20
19214;DHT22;9741;51.020;5.304;2022-08-01T08:31:46;29.80;46.90
19214;DHT22;9741;51.020;5.304;2022-08-01T08:34:14;29.70;46.80
19214;DHT22;9741;51.020;5.304;2022-08-01T08:36:41;29.70;46.80
19214;DHT22;9741;51.020;5.304;2022-08-01T08:39:09;29.70;46.80
19214;DHT22;9741;51.020;5.304;2022-08-01T08:41:37;29.70;46.80
19214;DHT22;9741;51.020;5.304;2022-08-01T08:44:04;29.70;46.50
19214;DHT22;9741;51.020;5.304;2022-08-01T08:46:33;29.80;46.30
19214;DHT22;9741;51.020;5.304;2022-08-01T08:49:02;29.80;46.10
19214;DHT22;9741;51.020;5.304;2022-08-01T08:51:35;29.80;46.00
19214;DHT22;9741;51.020;5.304;2022-08-01T08:54:05;29.80;45.80
19214;DHT22;9741;51.020;5.304;2022-08-01T08:56:35;29.80;45.60
19214;DHT22;9741;51.020;5.304;2022-08-01T08:59:05;29.90;45.60
19214;DHT22;9741;51.020;5.304;2022-08-01T09:01:33;30.00;45.40
19214;DHT22;9741;51.020;5.304;2022-08-01T09:04:01;30.10;45.50
19214;DHT22;9741;51.020;5.304;2022-08-01T09:06:29;30.20;45.30
19214;DHT22;9741;51.020;5.304;2022-08-01T09:09:00;30.30;44.90
19214;DHT22;9741;51.020;5.304;2022-08-01T09:11:27;30.50;44.60
19214;DHT22;9741;51.020;5.304;2022-08-01T09:14:11;30.50;44.50
19214;DHT22;9741;51.020;5.304;2022-08-01T09:16:41;30.70;44.60
19214;DHT22;9741;51.020;5.304;2022-08-01T09:19:12;30.80;45.20
19214;DHT22;9741;51.020;5.304;2022-08-01T09:21:56;30.90;44.40
19214;DHT22;9741;51.020;5.304;2022-08-01T09:24:26;31.00;44.40
19214;DHT22;9741;51.020;5.304;2022-08-01T09:26:54;31.00;44.00
19214;DHT22;9741;51.020;5.304;2022-08-01T09:29:23;31.10;43.60
19214;DHT22;9741;51.020;5.304;2022-08-01T09:31:52;31.10;43.50
19214;DHT22;9741;51.020;5.304;2022-08-01T09:34:24;31.10;43.50
19214;DHT22;9741;51.020;5.304;2022-08-01T09:36:53;31.00;43.50
19214;DHT22;9741;51.020;5.304;2022-08-01T09:39:23;31.00;43.40
19214;DHT22;9741;51.020;5.304;2022-08-01T09:41:52;31.10;43.30
19214;DHT22;9741;51.020;5.304;2022-08-01T09:44:36;31.20;43.00
19214;DHT22;9741;51.020;5.304;2022-08-01T09:47:05;31.10;42.70
19214;DHT22;9741;51.020;5.304;2022-08-01T09:49:34;31.10;42.60
19214;DHT22;9741;51.020;5.304;2022-08-01T09:52:13;31.00;42.70
19214;DHT22;9741;51.020;5.304;2022-08-01T09:54:42;30.80;42.70
19214;DHT22;9741;51.020;5.304;2022-08-01T09:57:13;30.60;42.90
19214;DHT22;9741;51.020;5.304;2022-08-01T09:59:41;30.50;42.80
19214;DHT22;9741;51.020;5.304;2022-08-01T10:02:10;30.50;42.60
19214;DHT22;9741;51.020;5.304;2022-08-01T10:04:46;30.50;42.80
19214;DHT22;9741;51.020;5.304;2022-08-01T10:07:16;30.60;42.40
19214;DHT22;9741;51.020;5.304;2022-08-01T10:09:43;30.70;42.30
19214;DHT22;9741;51.020;5.304;2022-08-01T10:12:14;30.90;42.60
19214;DHT22;9741;51.020;5.304;2022-08-01T10:14:43;31.10;42.30
19214;DHT22;9741;51.020;5.304;2022-08-01T10:17:13;31.60;42.30
19214;DHT22;9741;51.020;5.304;2022-08-01T10:19:42;31.90;41.80
19214;DHT22;9741;51.020;5.304;2022-08-01T10:22:12;32.20;41.10
19214;DHT22;9741;51.020;5.304;2022-08-01T10:24:44;32.30;40.90
19214;DHT22;9741;51.020;5.304;2022-08-01T10:27:15;32.30;40.60
19214;DHT22;9741;51.020;5.304;2022-08-01T10:29:47;32.10;40.40
19214;DHT22;9741;51.020;5.304;2022-08-01T10:32:17;31.90;40.50
19214;DHT22;9741;51.020;5.304;2022-08-01T10:34:44;31.80;40.80
19214;DHT22;9741;51.020;5.304;2022-08-01T10:37:13;31.80;41.10
19214;DHT22;9741;51.020;5.304;2022-08-01T10:39:41;31.70;40.80
19214;DHT22;9741;51.020;5.304;2022-08-01T10:42:11;31.60;40.70
19214;DHT22;9741;51.020;5.304;2022-08-01T10:44:41;31.50;40.90
19214;DHT22;9741;51.020;5.304;2022-08-01T10:47:15;31.30;40.70
19214;DHT22;9741;51.020;5.304;2022-08-01T10:49:48;31.10;40.70
19214;DHT22;9741;51.020;5.304;2022-08-01T10:52:17;30.90;40.60
19214;DHT22;9741;51.020;5.304;2022-08-01T10:54:46;30.70;40.70
19214;DHT22;9741;51.020;5.304;2022-08-01T10:57:13;30.60;40.70
19214;DHT22;9741;51.020;5.304;2022-08-01T11:00:00;30.60;41.00
19214;DHT22;9741;51.020;5.304;2022-08-01T11:02:29;30.50;41.10
19214;DHT22;9741;51.020;5.304;2022-08-01T11:05:00;30.40;41.20
19214;DHT22;9741;51.020;5.304;2022-08-01T11:07:42;30.40;41.10
19214;DHT22;9741;51.020;5.304;2022-08-01T11:10:22;30.40;40.90
19214;DHT22;9741;51.020;5.304;2022-08-01T11:12:51;30.50;41.10
19214;DHT22;9741;51.020;5.304;2022-08-01T11:15:24;30.50;40.70
19214;DHT22;9741;51.020;5.304;2022-08-01T11:17:53;30.50;40.70
19214;DHT22;9741;51.020;5.304;2022-08-01T11:20:22;30.50;40.70
19214;DHT22;9741;51.020;5.304;2022-08-01T11:23:23;30.50;40.50
19214;DHT22;9741;51.020;5.304;2022-08-01T11:26:21;30.60;40.30
19214;DHT22;9741;51.020;5.304;2022-08-01T11:29:12;30.70;39.90
19214;DHT22;9741;51.020;5.304;2022-08-01T11:31:41;30.80;40.00
19214;DHT22;9741;51.020;5.304;2022-08-01T11:34:08;30.90;40.00
19214;DHT22;9741;51.020;5.304;2022-08-01T11:36:37;30.90;39.90
19214;DHT22;9741;51.020;5.304;2022-08-01T11:39:18;30.80;39.80
19214;DHT22;9741;51.020;5.304;2022-08-01T11:41:48;30.80;40.00
19214;DHT22;9741;51.020;5.304;2022-08-01T11:44:18;30.80;39.90
19214;DHT22;9741;51.020;5.304;2022-08-01T11:46:48;30.70;39.70
19214;DHT22;9741;51.020;5.304;2022-08-01T11:49:26;30.80;40.00
19214;DHT22;9741;51.020;5.304;2022-08-01T11:51:58;30.80;39.70
19214;DHT22;9741;51.020;5.304;2022-08-01T11:54:27;30.90;39.70
19214;DHT22;9741;51.020;5.304;2022-08-01T11:56:56;30.90;39.70
19214;DHT22;9741;51.020;5.304;2022-08-01T11:59:25;30.90;39.70
19214;DHT22;9741;51.020;5.304;2022-08-01T12:01:54;31.00;39.60
19214;DHT22;9741;51.020;5.304;2022-08-01T12:04:21;31.00;39.50
19214;DHT22;9741;51.020;5.304;2022-08-01T12:06:48;31.00;39.60
19214;DHT22;9741;51.020;5.304;2022-08-01T12:09:18;31.10;39.40
19214;DHT22;9741;51.020;5.304;2022-08-01T12:11:46;31.10;39.40
19214;DHT22;9741;51.020;5.304;2022-08-01T12:14:20;31.20;39.50
19214;DHT22;9741;51.020;5.304;2022-08-01T12:16:55;31.30;39.60
19214;DHT22;9741;51.020;5.304;2022-08-01T12:19:24;31.30;39.50
19214;DHT22;9741;51.020;5.304;2022-08-01T12:22:08;31.40;39.60
19214;DHT22;9741;51.020;5.304;2022-08-01T12:24:35;31.50;39.40
19214;DHT22;9741;51.020;5.304;2022-08-01T12:27:03;31.40;39.20
19214;DHT22;9741;51.020;5.304;2022-08-01T12:29:35;31.40;39.30
19214;DHT22;9741;51.020;5.304;2022-08-01T12:32:04;31.30;39.20
19214;DHT22;9741;51.020;5.304;2022-08-01T12:34:40;31.20;39.10
19214;DHT22;9741;51.020;5.304;2022-08-01T12:37:08;31.20;39.20
19214;DHT22;9741;51.020;5.304;2022-08-01T12:39:35;31.10;39.00
19214;DHT22;9741;51.020;5.304;2022-08-01T12:42:06;31.00;39.00
19214;DHT22;9741;51.020;5.304;2022-08-01T12:44:37;31.00;39.10
19214;DHT22;9741;51.020;5.304;2022-08-01T12:47:07;30.90;39.30
19214;DHT22;9741;51.020;5.304;2022-08-01T12:49:36;30.80;39.70
19214;DHT22;9741;51.020;5.304;2022-08-01T12:52:04;30.80;39.40
19214;DHT22;9741;51.020;5.304;2022-08-01T12:55:00;30.70;39.50
19214;DHT22;9741;51.020;5.304;2022-08-01T12:57:27;30.70;39.60
19214;DHT22;9741;51.020;5.304;2022-08-01T13:00:09;30.60;39.70
19214;DHT22;9741;51.020;5.304;2022-08-01T13:02:38;30.70;39.90
19214;DHT22;9741;51.020;5.304;2022-08-01T13:05:06;30.70;39.90
19214;DHT22;9741;51.020;5.304;2022-08-01T13:07:44;30.60;39.90
19214;DHT22;9741;51.020;5.304;2022-08-01T13:10:13;30.60;39.50
19214;DHT22;9741;51.020;5.304;2022-08-01T13:12:51;30.50;39.70
19214;DHT22;9741;51.020;5.304;2022-08-01T13:15:27;30.40;39.90
19214;DHT22;9741;51.020;5.304;2022-08-01T13:17:59;30.30;39.80
19214;DHT22;9741;51.020;5.304;2022-08-01T13:20:31;30.20;39.70
19214;DHT22;9741;51.020;5.304;2022-08-01T13:23:15;30.20;39.80
19214;DHT22;9741;51.020;5.304;2022-08-01T13:25:53;30.20;39.80
19214;DHT22;9741;51.020;5.304;2022-08-01T13:28:23;30.30;39.80
19214;DHT22;9741;51.020;5.304;2022-08-01T13:30:51;30.30;39.70
19214;DHT22;9741;51.020;5.304;2022-08-01T13:33:20;30.30;39.80
19214;DHT22;9741;51.020;5.304;2022-08-01T13:35:49;30.30;39.70
19214;DHT22;9741;51.020;5.304;2022-08-01T13:38:17;30.30;39.80
19214;DHT22;9741;51.020;5.304;2022-08-01T13:40:44;30.20;39.80
19214;DHT22;9741;51.020;5.304;2022-08-01T13:43:11;30.20;39.90
19214;DHT22;9741;51.020;5.304;2022-08-01T13:45:40;30.10;39.80
19214;DHT22;9741;51.020;5.304;2022-08-01T13:48:07;30.00;40.00
19214;DHT22;9741;51.020;5.304;2022-08-01T13:50:35;29.90;40.00
19214;DHT22;9741;51.020;5.304;2022-08-01T13:53:02;29.80;40.20
19214;DHT22;9741;51.020;5.304;2022-08-01T13:55:30;29.70;40.40
19214;DHT22;9741;51.020;5.304;2022-08-01T13:57:57;29.70;40.50
19214;DHT22;9741;51.020;5.304;2022-08-01T14:00:24;29.60;40.40
19214;DHT22;9741;51.020;5.304;2022-08-01T14:02:51;29.50;40.40
19214;DHT22;9741;51.020;5.304;2022-08-01T14:05:19;29.50;40.40
19214;DHT22;9741;51.020;5.304;2022-08-01T14:07:49;29.50;40.60
19214;DHT22;9741;51.020;5.304;2022-08-01T14:10:16;29.40;40.60
19214;DHT22;9741;51.020;5.304;2022-08-01T14:12:43;29.40;40.80
19214;DHT22;9741;51.020;5.304;2022-08-01T14:15:10;29.50;40.80
19214;DHT22;9741;51.020;5.304;2022-08-01T14:17:37;29.40;40.70
19214;DHT22;9741;51.020;5.304;2022-08-01T14:20:05;29.40;40.80
19214;DHT22;9741;51.020;5.304;2022-08-01T14:22:32;29.30;40.70
19214;DHT22;9741;51.020;5.304;2022-08-01T14:25:01;29.20;40.70
19214;DHT22;9741;51.020;5.304;2022-08-01T14:27:28;29.10;40.70
19214;DHT22;9741;51.020;5.304;2022-08-01T14:29:56;28.90;40.70
19214;DHT22;9741;51.020;5.304;2022-08-01T14:32:23;28.90;40.90
19214;DHT22;9741;51.020;5.304;2022-08-01T14:34:50;28.80;41.10
19214;DHT22;9741;51.020;5.304;2022-08-01T14:37:17;28.70;41.10
19214;DHT22;9741;51.020;5.304;2022-08-01T14:39:44;28.70;41.10
19214;DHT22;9741;51.020;5.304;2022-08-01T14:42:13;28.70;41.00
19214;DHT22;9741;51.020;5.304;2022-08-01T14:44:40;28.60;41.00
19214;DHT22;9741;51.020;5.304;2022-08-01T14:47:07;28.60;41.00
19214;DHT22;9741;51.020;5.304;2022-08-01T14:49:34;28.60;41.30
19214;DHT22;9741;51.020;5.304;2022-08-01T14:52:01;28.60;41.20
19214;DHT22;9741;51.020;5.304;2022-08-01T14:54:28;28.70;42.00
19214;DHT22;9741;51.020;5.304;2022-08-01T14:56:55;28.70;41.30
19214;DHT22;9741;51.020;5.304;2022-08-01T14:59:24;28.80;41.30
19214;DHT22;9741;51.020;5.304;2022-08-01T15:01:51;28.80;41.10
19214;DHT22;9741;51.020;5.304;2022-08-01T15:04:18;28.90;40.80
19214;DHT22;9741;51.020;5.304;2022-08-01T15:06:46;28.90;40.70
19214;DHT22;9741;51.020;5.304;2022-08-01T15:09:14;29.00;40.70
19214;DHT22;9741;51.020;5.304;2022-08-01T15:11:41;29.00;40.60
19214;DHT22;9741;51.020;5.304;2022-08-01T15:14:10;29.00;40.50
19214;DHT22;9741;51.020;5.304;2022-08-01T15:16:56;29.00;40.40
19214;DHT22;9741;51.020;5.304;2022-08-01T15:19:23;29.00;40.40
19214;DHT22;9741;51.020;5.304;2022-08-01T15:21:50;29.00;40.40
19214;DHT22;9741;51.020;5.304;2022-08-01T15:24:17;28.90;40.50
19214;DHT22;9741;51.020;5.304;2022-08-01T15:26:44;28.90;40.50
19214;DHT22;9741;51.020;5.304;2022-08-01T15:29:11;28.80;40.60
19214;DHT22;9741;51.020;5.304;2022-08-01T15:31:39;28.70;40.60
19214;DHT22;9741;51.020;5.304;2022-08-01T15:34:07;28.70;40.70
19214;DHT22;9741;51.020;5.304;2022-08-01T15:36:34;28.60;40.70
19214;DHT22;9741;51.020;5.304;2022-08-01T15:39:02;28.50;40.70
19214;DHT22;9741;51.020;5.304;2022-08-01T15:41:29;28.40;40.70
19214;DHT22;9741;51.020;5.304;2022-08-01T15:43:56;28.30;40.50
19214;DHT22;9741;51.020;5.304;2022-08-01T15:46:23;28.20;40.40
19214;DHT22;9741;51.020;5.304;2022-08-01T15:48:50;28.20;40.70
19214;DHT22;9741;51.020;5.304;2022-08-01T15:51:19;28.10;40.80
19214;DHT22;9741;51.020;5.304;2022-08-01T15:53:46;28.10;40.90
19214;DHT22;9741;51.020;5.304;2022-08-01T15:56:13;28.10;40.90
19214;DHT22;9741;51.020;5.304;2022-08-01T15:58:40;28.00;41.00
19214;DHT22;9741;51.020;5.304;2022-08-01T16:01:07;28.00;41.20
19214;DHT22;9741;51.020;5.304;2022-08-01T16:03:34;27.90;41.30